sensor_id;sensor_type;location;lat;lon;timestamp;temperature;humidity
20337;DHT22;10326;53.660;10.200;2022-09-12T00:01:26;16.70;73.20
20337;DHT22;10326;53.660;10.200;2022-09-12T00:03:55;16.60;73.00
20337;DHT22;10326;53.660;10.200;2022-09-12T00:06:26;16.60;73.20
20337;DHT22;10326;53.660;10.200;2022-09-12T00:08:55;16.60;73.20
20337;DHT22;10326;53.660;10.200;2022-09-12T00:11:24;16.60;73.20
20337;DHT22;10326;53.660;10.200;2022-09-12T00:13:54;16.60;73.30
20337;DHT22;10326;53.660;10.200;2022-09-12T00:16:24;16.60;73.30
20337;DHT22;10326;53.660;10.200;2022-09-12T00:18:52;16.50;73.20
20337;DHT22;10326;53.660;10.200;2022-09-12T00:21:20;16.50;73.30
20337;DHT22;10326;53.660;10.200;2022-09-12T00:23:50;16.50;74.00
20337;DHT22;10326;53.660;10.200;2022-09-12T00:26:18;16.40;73.30
20337;DHT22;10326;53.660;10.200;2022-09-12T00:28:46;16.40;73.30
20337;DHT22;10326;53.660;10.200;2022-09-12T00:31:15;16.40;73.20
20337;DHT22;10326;53.660;10.200;2022-09-12T00:33:44;16.40;73.30
20337;DHT22;10326;53.660;10.200;2022-09-12T00:36:14;16.30;73.20
20337;DHT22;10326;53.660;10.200;2022-09-12T00:38:42;16.30;73.30
20337;DHT22;10326;53.660;10.200;2022-09-12T00:41:15;16.30;73.30
20337;DHT22;10326;53.660;10.200;2022-09-12T00:43:44;16.30;73.50
20337;DHT22;10326;53.660;10.200;2022-09-12T00:46:18;16.30;73.40
20337;DHT22;10326;53.660;10.200;2022-09-12T00:48:57;16.20;73.30
20337;DHT22;10326;53.660;10.200;2022-09-12T00:51:27;16.20;73.20
20337;DHT22;10326;53.660;10.200;2022-09-12T00:53:56;16.20;73.20
20337;DHT22;10326;53.660;10.200;2022-09-12T00:56:27;16.20;73.30
20337;DHT22;10326;53.660;10.200;2022-09-12T00:58:58;16.10;73.30
20337;DHT22;10326;53.660;10.200;2022-09-12T01:01:27;16.10;73.20
20337;DHT22;10326;53.660;10.200;2022-09-12T01:03:54;16.10;73.20
20337;DHT22;10326;53.660;10.200;2022-09-12T01:06:26;16.10;73.20
20337;DHT22;10326;53.660;10.200;2022-09-12T01:08:55;16.00;73.20
20337;DHT22;10326;53.660;10.200;2022-09-12T01:11:23;16.00;73.20
20337;DHT22;10326;53.660;10.200;2022-09-12T01:13:53;16.00;73.30
20337;DHT22;10326;53.660;10.200;2022-09-12T01:16:20;16.00;73.40
20337;DHT22;10326;53.660;10.200;2022-09-12T01:18:57;15.90;73.30
20337;DHT22;10326;53.660;10.200;2022-09-12T01:21:35;15.90;73.50
20337;DHT22;10326;53.660;10.200;2022-09-12T01:24:33;15.90;73.30
20337;DHT22;10326;53.660;10.200;2022-09-12T01:27:26;15.90;73.20
20337;DHT22;10326;53.660;10.200;2022-09-12T01:33:32;15.90;73.00
20337;DHT22;10326;53.660;10.200;2022-09-12T01:36:22;15.80;72.90
20337;DHT22;10326;53.660;10.200;2022-09-12T01:38:59;15.80;72.90
20337;DHT22;10326;53.660;10.200;2022-09-12T01:41:29;15.80;72.90
20337;DHT22;10326;53.660;10.200;2022-09-12T01:44:13;15.80;73.00
20337;DHT22;10326;53.660;10.200;2022-09-12T01:46:52;15.70;73.00
20337;DHT22;10326;53.660;10.200;2022-09-12T01:49:23;15.70;73.30
20337;DHT22;10326;53.660;10.200;2022-09-12T01:51:56;15.70;73.20
20337;DHT22;10326;53.660;10.200;2022-09-12T01:54:29;15.70;73.10
20337;DHT22;10326;53.660;10.200;2022-09-12T01:57:03;15.70;73.10
20337;DHT22;10326;53.660;10.200;2022-09-12T01:59:38;15.70;73.00
20337;DHT22;10326;53.660;10.200;2022-09-12T02:02:10;15.60;73.00
20337;DHT22;10326;53.660;10.200;2022-09-12T02:04:43;15.60;73.00
20337;DHT22;10326;53.660;10.200;2022-09-12T02:07:19;15.60;73.00
20337;DHT22;10326;53.660;10.200;2022-09-12T02:09:52;15.50;72.90
20337;DHT22;10326;53.660;10.200;2022-09-12T02:12:24;15.50;73.00
20337;DHT22;10326;53.660;10.200;2022-09-12T02:14:58;15.50;73.10
20337;DHT22;10326;53.660;10.200;2022-09-12T02:17:29;15.40;73.20
20337;DHT22;10326;53.660;10.200;2022-09-12T02:20:05;15.40;73.20
20337;DHT22;10326;53.660;10.200;2022-09-12T02:22:36;15.40;73.40
20337;DHT22;10326;53.660;10.200;2022-09-12T02:25:06;15.40;73.30
20337;DHT22;10326;53.660;10.200;2022-09-12T02:27:36;15.30;73.30
20337;DHT22;10326;53.660;10.200;2022-09-12T02:30:07;15.30;73.30
20337;DHT22;10326;53.660;10.200;2022-09-12T02:32:41;15.40;73.30
20337;DHT22;10326;53.660;10.200;2022-09-12T02:35:15;15.30;73.30
20337;DHT22;10326;53.660;10.200;2022-09-12T02:37:54;15.30;73.20
20337;DHT22;10326;53.660;10.200;2022-09-12T02:40:25;15.30;73.20
20337;DHT22;10326;53.660;10.200;2022-09-12T02:42:52;15.30;73.20
20337;DHT22;10326;53.660;10.200;2022-09-12T02:45:19;15.20;73.10
20337;DHT22;10326;53.660;10.200;2022-09-12T02:47:52;15.20;73.20
20337;DHT22;10326;53.660;10.200;2022-09-12T02:50:21;15.20;73.40
20337;DHT22;10326;53.660;10.200;2022-09-12T02:52:49;15.20;73.40
20337;DHT22;10326;53.660;10.200;2022-09-12T02:55:18;15.20;73.60
20337;DHT22;10326;53.660;10.200;2022-09-12T02:57:45;15.10;73.70
20337;DHT22;10326;53.660;10.200;2022-09-12T03:00:13;15.20;73.80
20337;DHT22;10326;53.660;10.200;2022-09-12T03:03:02;15.10;73.80
20337;DHT22;10326;53.660;10.200;2022-09-12T03:05:41;15.10;74.10
20337;DHT22;10326;53.660;10.200;2022-09-12T03:11:32;15.10;73.60
20337;DHT22;10326;53.660;10.200;2022-09-12T03:14:25;15.10;73.70
20337;DHT22;10326;53.660;10.200;2022-09-12T03:17:07;15.10;73.50
20337;DHT22;10326;53.660;10.200;2022-09-12T03:19:47;15.10;73.40
20337;DHT22;10326;53.660;10.200;2022-09-12T03:22:24;15.10;73.50
20337;DHT22;10326;53.660;10.200;2022-09-12T03:25:01;15.10;73.40
20337;DHT22;10326;53.660;10.200;2022-09-12T03:27:34;15.10;73.40
20337;DHT22;10326;53.660;10.200;2022-09-12T03:30:06;15.00;73.40
20337;DHT22;10326;53.660;10.200;2022-09-12T03:32:42;15.00;73.50
20337;DHT22;10326;53.660;10.200;2022-09-12T03:35:14;15.00;73.70
20337;DHT22;10326;53.660;10.200;2022-09-12T03:37:42;15.00;73.70
20337;DHT22;10326;53.660;10.200;2022-09-12T03:40:10;15.00;73.70
20337;DHT22;10326;53.660;10.200;2022-09-12T03:42:37;15.00;73.50
20337;DHT22;10326;53.660;10.200;2022-09-12T03:45:06;15.00;73.50
20337;DHT22;10326;53.660;10.200;2022-09-12T03:47:34;15.00;73.60
20337;DHT22;10326;53.660;10.200;2022-09-12T03:50:04;15.00;73.60
20337;DHT22;10326;53.660;10.200;2022-09-12T03:52:34;15.00;73.60
20337;DHT22;10326;53.660;10.200;2022-09-12T03:55:01;14.90;73.50
20337;DHT22;10326;53.660;10.200;2022-09-12T03:57:28;14.90;73.50
20337;DHT22;10326;53.660;10.200;2022-09-12T03:59:55;14.90;73.50
20337;DHT22;10326;53.660;10.200;2022-09-12T04:02:22;14.90;73.40
20337;DHT22;10326;53.660;10.200;2022-09-12T04:04:49;14.90;73.40
20337;DHT22;10326;53.660;10.200;2022-09-12T04:07:16;14.90;73.30
20337;DHT22;10326;53.660;10.200;2022-09-12T04:09:44;14.90;73.30
20337;DHT22;10326;53.660;10.200;2022-09-12T04:12:11;14.80;73.20
20337;DHT22;10326;53.660;10.200;2022-09-12T04:14:39;14.80;73.10
20337;DHT22;10326;53.660;10.200;2022-09-12T04:17:06;14.80;73.10
20337;DHT22;10326;53.660;10.200;2022-09-12T04:19:33;14.80;73.60
20337;DHT22;10326;53.660;10.200;2022-09-12T04:22:01;14.80;73.00
20337;DHT22;10326;53.660;10.200;2022-09-12T04:24:28;14.80;73.20
20337;DHT22;10326;53.660;10.200;2022-09-12T04:26:57;14.80;73.30
20337;DHT22;10326;53.660;10.200;2022-09-12T04:29:24;14.80;73.30
20337;DHT22;10326;53.660;10.200;2022-09-12T04:31:52;14.70;73.30
20337;DHT22;10326;53.660;10.200;2022-09-12T04:34:19;14.80;73.30
20337;DHT22;10326;53.660;10.200;2022-09-12T04:36:46;14.70;73.30
20337;DHT22;10326;53.660;10.200;2022-09-12T04:39:13;14.70;73.30
20337;DHT22;10326;53.660;10.200;2022-09-12T04:41:41;14.70;73.30
20337;DHT22;10326;53.660;10.200;2022-09-12T04:44:12;14.60;73.30
20337;DHT22;10326;53.660;10.200;2022-09-12T04:46:41;14.70;73.30
20337;DHT22;10326;53.660;10.200;2022-09-12T04:49:12;14.70;73.30
20337;DHT22;10326;53.660;10.200;2022-09-12T04:51:41;14.70;73.40
20337;DHT22;10326;53.660;10.200;2022-09-12T04:54:12;14.60;73.40
20337;DHT22;10326;53.660;10.200;2022-09-12T04:56:42;14.60;73.40
20337;DHT22;10326;53.660;10.200;2022-09-12T04:59:12;14.60;73.50
20337;DHT22;10326;53.660;10.200;2022-09-12T05:01:41;14.60;73.50
20337;DHT22;10326;53.660;10.200;2022-09-12T05:04:09;14.60;73.60
20337;DHT22;10326;53.660;10.200;2022-09-12T05:06:38;14.60;73.70
20337;DHT22;10326;53.660;10.200;2022-09-12T05:09:09;14.60;73.70
20337;DHT22;10326;53.660;10.200;2022-09-12T05:11:41;14.60;73.80
20337;DHT22;10326;53.660;10.200;2022-09-12T05:14:11;14.50;73.70
20337;DHT22;10326;53.660;10.200;2022-09-12T05:16:38;14.50;73.60
20337;DHT22;10326;53.660;10.200;2022-09-12T05:19:06;14.50;73.70
20337;DHT22;10326;53.660;10.200;2022-09-12T05:21:33;14.50;73.80
20337;DHT22;10326;53.660;10.200;2022-09-12T05:24:01;14.50;73.90
20337;DHT22;10326;53.660;10.200;2022-09-12T05:26:30;14.50;74.00
20337;DHT22;10326;53.660;10.200;2022-09-12T05:28:58;14.50;74.10
20337;DHT22;10326;53.660;10.200;2022-09-12T05:31:27;14.50;74.10
20337;DHT22;10326;53.660;10.200;2022-09-12T05:33:55;14.50;74.20
20337;DHT22;10326;53.660;10.200;2022-09-12T05:36:24;14.50;74.30
20337;DHT22;10326;53.660;10.200;2022-09-12T05:38:52;14.50;74.30
20337;DHT22;10326;53.660;10.200;2022-09-12T05:41:21;14.50;74.30
20337;DHT22;10326;53.660;10.200;2022-09-12T05:43:51;14.60;74.50
20337;DHT22;10326;53.660;10.200;2022-09-12T05:46:21;14.60;74.60
20337;DHT22;10326;53.660;10.200;2022-09-12T05:48:52;14.60;74.70
20337;DHT22;10326;53.660;10.200;2022-09-12T05:51:21;14.60;74.90
20337;DHT22;10326;53.660;10.200;2022-09-12T05:53:51;14.60;75.00
20337;DHT22;10326;53.660;10.200;2022-09-12T05:56:22;14.60;75.20
20337;DHT22;10326;53.660;10.200;2022-09-12T05:58:53;14.60;75.60
20337;DHT22;10326;53.660;10.200;2022-09-12T06:01:22;14.60;75.50
20337;DHT22;10326;53.660;10.200;2022-09-12T06:03:52;14.70;75.60
20337;DHT22;10326;53.660;10.200;2022-09-12T06:06:23;14.70;75.90
20337;DHT22;10326;53.660;10.200;2022-09-12T06:08:52;14.70;76.00
20337;DHT22;10326;53.660;10.200;2022-09-12T06:11:22;14.70;76.10
20337;DHT22;10326;53.660;10.200;2022-09-12T06:13:51;14.80;76.30
20337;DHT22;10326;53.660;10.200;2022-09-12T06:16:19;14.80;76.60
20337;DHT22;10326;53.660;10.200;2022-09-12T06:18:49;14.80;76.80
20337;DHT22;10326;53.660;10.200;2022-09-12T06:21:19;14.90;77.00
20337;DHT22;10326;53.660;10.200;2022-09-12T06:23:47;14.90;77.20
20337;DHT22;10326;53.660;10.200;2022-09-12T06:26:17;15.00;77.30
20337;DHT22;10326;53.660;10.200;2022-09-12T06:28:46;15.00;77.50
20337;DHT22;10326;53.660;10.200;2022-09-12T06:31:14;15.10;77.60
20337;DHT22;10326;53.660;10.200;2022-09-12T06:33:45;15.10;77.90
20337;DHT22;10326;53.660;10.200;2022-09-12T06:36:19;15.20;78.30
20337;DHT22;10326;53.660;10.200;2022-09-12T06:38:53;15.20;78.60
20337;DHT22;10326;53.660;10.200;2022-09-12T06:41:22;15.30;78.80
20337;DHT22;10326;53.660;10.200;2022-09-12T06:43:50;15.30;78.60
20337;DHT22;10326;53.660;10.200;2022-09-12T06:46:17;15.40;78.80
20337;DHT22;10326;53.660;10.200;2022-09-12T06:48:45;15.40;79.00
20337;DHT22;10326;53.660;10.200;2022-09-12T06:51:18;15.50;79.20
20337;DHT22;10326;53.660;10.200;2022-09-12T06:53:46;15.60;79.80
20337;DHT22;10326;53.660;10.200;2022-09-12T06:56:15;15.60;79.90
20337;DHT22;10326;53.660;10.200;2022-09-12T06:58:45;15.70;80.70
20337;DHT22;10326;53.660;10.200;2022-09-12T07:01:14;15.80;80.40
20337;DHT22;10326;53.660;10.200;2022-09-12T07:03:46;15.80;80.50
20337;DHT22;10326;53.660;10.200;2022-09-12T07:06:18;15.90;80.80
20337;DHT22;10326;53.660;10.200;2022-09-12T07:08:46;16.00;80.90
20337;DHT22;10326;53.660;10.200;2022-09-12T07:11:15;16.00;80.80
20337;DHT22;10326;53.660;10.200;2022-09-12T07:13:46;16.10;81.20
20337;DHT22;10326;53.660;10.200;2022-09-12T07:16:14;16.20;81.60
20337;DHT22;10326;53.660;10.200;2022-09-12T07:18:42;16.30;81.80
20337;DHT22;10326;53.660;10.200;2022-09-12T07:21:12;16.30;81.90
20337;DHT22;10326;53.660;10.200;2022-09-12T07:23:41;16.40;82.20
20337;DHT22;10326;53.660;10.200;2022-09-12T07:26:10;16.40;82.50
20337;DHT22;10326;53.660;10.200;2022-09-12T07:28:38;16.50;82.70
20337;DHT22;10326;53.660;10.200;2022-09-12T07:31:07;16.60;82.90
20337;DHT22;10326;53.660;10.200;2022-09-12T07:33:36;16.70;83.10
20337;DHT22;10326;53.660;10.200;2022-09-12T07:36:05;16.80;83.10
20337;DHT22;10326;53.660;10.200;2022-09-12T07:38:35;16.80;83.30
20337;DHT22;10326;53.660;10.200;2022-09-12T07:41:10;16.90;83.40
20337;DHT22;10326;53.660;10.200;2022-09-12T07:43:38;17.00;84.00
20337;DHT22;10326;53.660;10.200;2022-09-12T07:46:06;17.00;83.40
20337;DHT22;10326;53.660;10.200;2022-09-12T07:48:34;17.10;83.70
20337;DHT22;10326;53.660;10.200;2022-09-12T07:51:04;17.20;83.80
20337;DHT22;10326;53.660;10.200;2022-09-12T07:53:34;17.30;84.00
20337;DHT22;10326;53.660;10.200;2022-09-12T07:56:03;17.30;84.20
20337;DHT22;10326;53.660;10.200;2022-09-12T07:58:33;17.40;84.40
20337;DHT22;10326;53.660;10.200;2022-09-12T08:01:02;17.40;84.70
20337;DHT22;10326;53.660;10.200;2022-09-12T08:03:30;17.50;84.60
20337;DHT22;10326;53.660;10.200;2022-09-12T08:06:03;17.60;84.60
20337;DHT22;10326;53.660;10.200;2022-09-12T08:08:30;17.70;85.00
20337;DHT22;10326;53.660;10.200;2022-09-12T08:10:59;17.70;84.80
20337;DHT22;10326;53.660;10.200;2022-09-12T08:13:27;17.80;84.80
20337;DHT22;10326;53.660;10.200;2022-09-12T08:15:58;17.90;84.90
20337;DHT22;10326;53.660;10.200;2022-09-12T08:18:25;17.90;85.00
20337;DHT22;10326;53.660;10.200;2022-09-12T08:20:56;18.00;85.00
20337;DHT22;10326;53.660;10.200;2022-09-12T08:23:23;18.10;85.40
20337;DHT22;10326;53.660;10.200;2022-09-12T08:25:55;18.10;85.20
20337;DHT22;10326;53.660;10.200;2022-09-12T08:28:22;18.20;85.40
20337;DHT22;10326;53.660;10.200;2022-09-12T08:30:50;18.30;85.20
20337;DHT22;10326;53.660;10.200;2022-09-12T08:33:18;18.40;85.20
20337;DHT22;10326;53.660;10.200;2022-09-12T08:35:46;18.40;85.30
20337;DHT22;10326;53.660;10.200;2022-09-12T08:38:13;18.50;85.20
20337;DHT22;10326;53.660;10.200;2022-09-12T08:40:51;18.60;85.10
20337;DHT22;10326;53.660;10.200;2022-09-12T08:43:32;18.70;85.40
20337;DHT22;10326;53.660;10.200;2022-09-12T08:46:09;18.80;85.40
20337;DHT22;10326;53.660;10.200;2022-09-12T08:48:43;18.80;85.20
20337;DHT22;10326;53.660;10.200;2022-09-12T08:51:14;18.90;85.10
20337;DHT22;10326;53.660;10.200;2022-09-12T08:53:44;19.00;85.10
20337;DHT22;10326;53.660;10.200;2022-09-12T08:56:12;19.10;85.00
20337;DHT22;10326;53.660;10.200;2022-09-12T08:58:41;19.10;84.80
20337;DHT22;10326;53.660;10.200;2022-09-12T09:01:16;19.20;84.80
20337;DHT22;10326;53.660;10.200;2022-09-12T09:04:08;19.30;84.70
20337;DHT22;10326;53.660;10.200;2022-09-12T09:07:07;19.30;84.50
20337;DHT22;10326;53.660;10.200;2022-09-12T09:10:02;19.40;84.40
20337;DHT22;10326;53.660;10.200;2022-09-12T09:12:43;19.50;83.80
20337;DHT22;10326;53.660;10.200;2022-09-12T09:15:32;19.50;83.80
20337;DHT22;10326;53.660;10.200;2022-09-12T09:18:11;19.60;83.50
20337;DHT22;10326;53.660;10.200;2022-09-12T09:20:47;19.60;83.50
20337;DHT22;10326;53.660;10.200;2022-09-12T09:23:22;19.70;83.30
20337;DHT22;10326;53.660;10.200;2022-09-12T09:25:55;19.70;83.20
20337;DHT22;10326;53.660;10.200;2022-09-12T09:28:30;19.70;82.90
20337;DHT22;10326;53.660;10.200;2022-09-12T09:31:02;19.80;82.90
20337;DHT22;10326;53.660;10.200;2022-09-12T09:33:33;19.80;82.80
20337;DHT22;10326;53.660;10.200;2022-09-12T09:36:09;19.90;82.80
20337;DHT22;10326;53.660;10.200;2022-09-12T09:38:47;19.90;81.90
20337;DHT22;10326;53.660;10.200;2022-09-12T09:41:29;20.00;81.80
20337;DHT22;10326;53.660;10.200;2022-09-12T09:44:01;20.10;82.20
20337;DHT22;10326;53.660;10.200;2022-09-12T09:46:28;20.10;81.90
20337;DHT22;10326;53.660;10.200;2022-09-12T09:48:56;20.20;81.80
20337;DHT22;10326;53.660;10.200;2022-09-12T09:51:31;20.30;81.80
20337;DHT22;10326;53.660;10.200;2022-09-12T09:54:04;20.30;81.40
20337;DHT22;10326;53.660;10.200;2022-09-12T09:56:38;20.40;81.10
20337;DHT22;10326;53.660;10.200;2022-09-12T09:59:10;20.40;80.70
20337;DHT22;10326;53.660;10.200;2022-09-12T10:01:45;20.50;80.60
20337;DHT22;10326;53.660;10.200;2022-09-12T10:04:18;20.50;80.20
20337;DHT22;10326;53.660;10.200;2022-09-12T10:06:52;20.50;79.90
20337;DHT22;10326;53.660;10.200;2022-09-12T10:09:25;20.60;79.70
20337;DHT22;10326;53.660;10.200;2022-09-12T10:11:53;20.60;79.70
20337;DHT22;10326;53.660;10.200;2022-09-12T10:14:36;20.70;79.40
20337;DHT22;10326;53.660;10.200;2022-09-12T10:17:24;20.70;78.80
20337;DHT22;10326;53.660;10.200;2022-09-12T10:19:54;20.70;78.60
20337;DHT22;10326;53.660;10.200;2022-09-12T10:22:25;20.80;78.80
20337;DHT22;10326;53.660;10.200;2022-09-12T10:24:57;20.90;78.60
20337;DHT22;10326;53.660;10.200;2022-09-12T10:27:28;20.90;78.20
20337;DHT22;10326;53.660;10.200;2022-09-12T10:30:02;20.90;77.60
20337;DHT22;10326;53.660;10.200;2022-09-12T10:32:34;20.90;77.90
20337;DHT22;10326;53.660;10.200;2022-09-12T10:35:06;21.00;77.60
20337;DHT22;10326;53.660;10.200;2022-09-12T10:37:51;21.10;77.90
20337;DHT22;10326;53.660;10.200;2022-09-12T10:40:22;21.10;77.20
20337;DHT22;10326;53.660;10.200;2022-09-12T10:42:52;21.10;77.30
20337;DHT22;10326;53.660;10.200;2022-09-12T10:45:23;21.20;76.40
20337;DHT22;10326;53.660;10.200;2022-09-12T10:47:55;21.20;76.60
20337;DHT22;10326;53.660;10.200;2022-09-12T10:50:29;21.30;76.30
20337;DHT22;10326;53.660;10.200;2022-09-12T10:53:17;21.30;75.50
20337;DHT22;10326;53.660;10.200;2022-09-12T10:56:12;21.40;75.50
20337;DHT22;10326;53.660;10.200;2022-09-12T10:59:02;21.40;76.30
20337;DHT22;10326;53.660;10.200;2022-09-12T11:01:39;21.50;75.90
20337;DHT22;10326;53.660;10.200;2022-09-12T11:04:23;21.50;76.00
20337;DHT22;10326;53.660;10.200;2022-09-12T11:07:01;21.60;75.60
20337;DHT22;10326;53.660;10.200;2022-09-12T11:09:44;21.60;75.50
20337;DHT22;10326;53.660;10.200;2022-09-12T11:12:21;21.70;74.30
20337;DHT22;10326;53.660;10.200;2022-09-12T11:15:01;21.70;73.70
20337;DHT22;10326;53.660;10.200;2022-09-12T11:17:41;21.70;74.10
20337;DHT22;10326;53.660;10.200;2022-09-12T11:20:40;21.70;74.20
20337;DHT22;10326;53.660;10.200;2022-09-12T11:23:34;21.80;74.00
20337;DHT22;10326;53.660;10.200;2022-09-12T11:26:33;21.80;74.00
20337;DHT22;10326;53.660;10.200;2022-09-12T11:29:13;21.80;73.60
20337;DHT22;10326;53.660;10.200;2022-09-12T11:32:07;21.90;73.50
20337;DHT22;10326;53.660;10.200;2022-09-12T11:34:50;21.90;73.60
20337;DHT22;10326;53.660;10.200;2022-09-12T11:37:34;22.00;73.40
20337;DHT22;10326;53.660;10.200;2022-09-12T11:40:27;22.00;74.00
20337;DHT22;10326;53.660;10.200;2022-09-12T11:43:04;22.00;73.90
20337;DHT22;10326;53.660;10.200;2022-09-12T11:45:40;22.10;73.70
20337;DHT22;10326;53.660;10.200;2022-09-12T11:48:12;22.10;74.10
20337;DHT22;10326;53.660;10.200;2022-09-12T11:50:44;22.10;74.10
20337;DHT22;10326;53.660;10.200;2022-09-12T11:53:18;22.20;74.60
20337;DHT22;10326;53.660;10.200;2022-09-12T11:55:54;22.20;74.10
20337;DHT22;10326;53.660;10.200;2022-09-12T11:58:27;22.30;74.40
20337;DHT22;10326;53.660;10.200;2022-09-12T12:00:58;22.30;74.30
20337;DHT22;10326;53.660;10.200;2022-09-12T12:03:37;22.40;74.10
20337;DHT22;10326;53.660;10.200;2022-09-12T12:06:11;22.40;74.00
20337;DHT22;10326;53.660;10.200;2022-09-12T12:08:43;22.40;73.00
20337;DHT22;10326;53.660;10.200;2022-09-12T12:11:13;22.50;73.80
20337;DHT22;10326;53.660;10.200;2022-09-12T12:13:48;22.50;74.00
20337;DHT22;10326;53.660;10.200;2022-09-12T12:16:22;22.50;73.90
20337;DHT22;10326;53.660;10.200;2022-09-12T12:18:53;22.60;73.20
20337;DHT22;10326;53.660;10.200;2022-09-12T12:21:37;22.60;73.50
20337;DHT22;10326;53.660;10.200;2022-09-12T12:24:15;22.60;73.40
20337;DHT22;10326;53.660;10.200;2022-09-12T12:26:55;22.70;73.40
20337;DHT22;10326;53.660;10.200;2022-09-12T12:29:42;22.70;72.50
20337;DHT22;10326;53.660;10.200;2022-09-12T12:32:26;22.80;72.20
20337;DHT22;10326;53.660;10.200;2022-09-12T12:38:26;22.90;72.50
20337;DHT22;10326;53.660;10.200;2022-09-12T12:41:41;23.00;72.30
20337;DHT22;10326;53.660;10.200;2022-09-12T12:47:17;23.10;72.10
20337;DHT22;10326;53.660;10.200;2022-09-12T12:49:50;23.10;71.30
20337;DHT22;10326;53.660;10.200;2022-09-12T12:52:19;23.20;71.50
20337;DHT22;10326;53.660;10.200;2022-09-12T12:54:52;23.20;71.70
20337;DHT22;10326;53.660;10.200;2022-09-12T12:57:44;23.20;70.10
20337;DHT22;10326;53.660;10.200;2022-09-12T13:00:31;23.20;70.40
20337;DHT22;10326;53.660;10.200;2022-09-12T13:03:05;23.20;69.40
20337;DHT22;10326;53.660;10.200;2022-09-12T13:05:40;23.20;70.20
20337;DHT22;10326;53.660;10.200;2022-09-12T13:08:27;23.20;70.20
20337;DHT22;10326;53.660;10.200;2022-09-12T13:10:58;23.20;70.10
20337;DHT22;10326;53.660;10.200;2022-09-12T13:13:31;23.30;70.00
20337;DHT22;10326;53.660;10.200;2022-09-12T13:16:02;23.20;70.10
20337;DHT22;10326;53.660;10.200;2022-09-12T13:18:36;23.20;70.60
20337;DHT22;10326;53.660;10.200;2022-09-12T13:21:09;23.20;70.50
20337;DHT22;10326;53.660;10.200;2022-09-12T13:23:38;23.20;70.60
20337;DHT22;10326;53.660;10.200;2022-09-12T13:26:10;23.20;70.10
20337;DHT22;10326;53.660;10.200;2022-09-12T13:28:39;23.20;70.00
20337;DHT22;10326;53.660;10.200;2022-09-12T13:31:13;23.20;70.30
20337;DHT22;10326;53.660;10.200;2022-09-12T13:33:46;23.20;70.00
20337;DHT22;10326;53.660;10.200;2022-09-12T13:36:51;23.30;70.30
20337;DHT22;10326;53.660;10.200;2022-09-12T13:39:26;23.30;70.10
20337;DHT22;10326;53.660;10.200;2022-09-12T13:42:07;23.30;69.80
20337;DHT22;10326;53.660;10.200;2022-09-12T13:45:06;23.30;69.80
20337;DHT22;10326;53.660;10.200;2022-09-12T13:47:42;23.30;69.80
20337;DHT22;10326;53.660;10.200;2022-09-12T13:50:16;23.40;69.60
20337;DHT22;10326;53.660;10.200;2022-09-12T13:52:47;23.40;69.10
20337;DHT22;10326;53.660;10.200;2022-09-12T13:55:28;23.40;69.70
20337;DHT22;10326;53.660;10.200;2022-09-12T13:57:59;23.40;69.40
20337;DHT22;10326;53.660;10.200;2022-09-12T14:00:29;23.40;69.20
20337;DHT22;10326;53.660;10.200;2022-09-12T14:02:58;23.40;69.20
20337;DHT22;10326;53.660;10.200;2022-09-12T14:05:48;23.30;68.90
20337;DHT22;10326;53.660;10.200;2022-09-12T14:08:21;23.30;69.30
20337;DHT22;10326;53.660;10.200;2022-09-12T14:10:50;23.30;69.30
20337;DHT22;10326;53.660;10.200;2022-09-12T14:13:20;23.30;69.10
20337;DHT22;10326;53.660;10.200;2022-09-12T14:15:50;23.30;69.10
20337;DHT22;10326;53.660;10.200;2022-09-12T14:18:23;23.30;69.50
20337;DHT22;10326;53.660;10.200;2022-09-12T14:20:52;23.30;68.90
20337;DHT22;10326;53.660;10.200;2022-09-12T14:23:25;23.30;69.40
20337;DHT22;10326;53.660;10.200;2022-09-12T14:25:55;23.30;69.10
20337;DHT22;10326;53.660;10.200;2022-09-12T14:28:25;23.30;69.60
20337;DHT22;10326;53.660;10.200;2022-09-12T14:31:00;23.30;69.00
20337;DHT22;10326;53.660;10.200;2022-09-12T14:33:44;23.40;68.90
20337;DHT22;10326;53.660;10.200;2022-09-12T14:36:21;23.40;69.70
20337;DHT22;10326;53.660;10.200;2022-09-12T14:38:52;23.40;69.90
20337;DHT22;10326;53.660;10.200;2022-09-12T14:41:24;23.50;70.00
20337;DHT22;10326;53.660;10.200;2022-09-12T14:43:55;23.50;69.50
20337;DHT22;10326;53.660;10.200;2022-09-12T14:46:29;23.60;68.30
20337;DHT22;10326;53.660;10.200;2022-09-12T14:49:07;23.60;68.90
20337;DHT22;10326;53.660;10.200;2022-09-12T14:51:37;23.70;68.70
20337;DHT22;10326;53.660;10.200;2022-09-12T14:54:20;23.80;68.40
20337;DHT22;10326;53.660;10.200;2022-09-12T14:57:03;23.80;69.00
20337;DHT22;10326;53.660;10.200;2022-09-12T14:59:36;23.90;68.60
20337;DHT22;10326;53.660;10.200;2022-09-12T15:02:20;23.90;68.30
20337;DHT22;10326;53.660;10.200;2022-09-12T15:04:50;23.90;67.70
20337;DHT22;10326;53.660;10.200;2022-09-12T15:07:27;24.00;67.70
20337;DHT22;10326;53.660;10.200;2022-09-12T15:09:58;24.00;67.90
20337;DHT22;10326;53.660;10.200;2022-09-12T15:12:26;24.00;67.80
20337;DHT22;10326;53.660;10.200;2022-09-12T15:14:57;24.00;67.40
20337;DHT22;10326;53.660;10.200;2022-09-12T15:17:26;24.00;67.10
20337;DHT22;10326;53.660;10.200;2022-09-12T15:19:54;24.00;67.40
20337;DHT22;10326;53.660;10.200;2022-09-12T15:22:22;24.00;67.40
20337;DHT22;10326;53.660;10.200;2022-09-12T15:24:50;24.00;66.80
20337;DHT22;10326;53.660;10.200;2022-09-12T15:27:17;23.90;66.60
20337;DHT22;10326;53.660;10.200;2022-09-12T15:29:45;23.90;66.50
20337;DHT22;10326;53.660;10.200;2022-09-12T15:32:22;23.90;66.40
20337;DHT22;10326;53.660;10.200;2022-09-12T15:34:49;23.90;66.20
20337;DHT22;10326;53.660;10.200;2022-09-12T15:37:19;23.80;66.90
20337;DHT22;10326;53.660;10.200;2022-09-12T15:39:48;23.80;66.60
20337;DHT22;10326;53.660;10.200;2022-09-12T15:42:16;23.80;66.70
20337;DHT22;10326;53.660;10.200;2022-09-12T15:44:44;23.80;66.60
20337;DHT22;10326;53.660;10.200;2022-09-12T15:47:12;23.80;66.20
20337;DHT22;10326;53.660;10.200;2022-09-12T15:49:40;23.80;66.40
20337;DHT22;10326;53.660;10.200;2022-09-12T15:52:12;23.70;66.10
20337;DHT22;10326;53.660;10.200;2022-09-12T15:54:42;23.70;65.80
20337;DHT22;10326;53.660;10.200;2022-09-12T15:57:09;23.70;65.80
20337;DHT22;10326;53.660;10.200;2022-09-12T15:59:36;23.70;65.90
20337;DHT22;10326;53.660;10.200;2022-09-12T16:02:04;23.70;66.20
20337;DHT22;10326;53.660;10.200;2022-09-12T16:04:31;23.70;66.20